Flight Track Log - Related Links

Times and Time Zones

All times are in EDT time to prevent confusion due to time zone crossing. See the SKW6306 flight status page for this flight to view local times or setup timezone preferences in your user account.

Time Position Orientation Groundspeed Altitude Reporting Facility
EDT Latitude Longitude Course Direction KTS MPH feet Rate Location/Type
Sat 04:51:08 PM 52.1500 -106.7000 198° South 160 184 2,700  Level Winnipeg Center
Sat 04:52:08 PM 52.1167 -106.6667 148° Southeast 220 253 4,500 2,200 Climbing Winnipeg Center
Sat 04:53:00 PM 51.8612 -106.8667 199° South  Level FlightAware Approximate
Sat 04:53:08 PM 52.0500 -106.7000 197° South 260 299 7,100  Level Winnipeg Center
Sat 04:54:00 PM 51.7578 -106.9212 197° South  Level FlightAware Approximate
Sat 04:54:08 PM 51.9833 -106.7500 205° Southwest 260 299 9,900  Level Winnipeg Center
Sat 04:55:00 PM 51.6540 -106.9730 197° South  Level FlightAware Approximate
Sat 04:55:08 PM 51.9167 -106.7833 197° South 270 311 12,500  Level Winnipeg Center
Sat 04:56:00 PM 51.5518 -107.0258 198° South  Level FlightAware Approximate
Sat 04:56:08 PM 51.8333 -106.8167 194° South 290 334 14,400  Level Winnipeg Center
Sat 04:57:08 PM 51.7500 -106.8833 206° Southwest 310 357 16,200 1,700 Climbing Winnipeg Center
Sat 04:58:08 PM 51.6667 -106.9167 194° South 320 368 17,800 1,600 Climbing Winnipeg Center
Sat 04:59:08 PM 51.5833 -106.9833 206° Southwest 330 380 19,400 1,450 Climbing Winnipeg Center
Sat 05:00:08 PM 51.4833 -107.0167 192° South 340 391 20,700 1,300 Climbing Winnipeg Center
Sat 05:01:08 PM 51.4000 -107.0833 207° Southwest 350 403 22,000 1,200 Climbing Winnipeg Center
Sat 05:02:08 PM 51.3167 -107.1333 201° Southwest 350 403 23,100 1,059 Climbing Winnipeg Center
Sat 05:03:07 PM 51.2167 -107.2000 203° Southwest 360 414 24,100 1,059 Climbing Winnipeg Center
Sat 05:04:07 PM 51.1167 -107.2500 197° South 370 426 25,200 1,050 Climbing Winnipeg Center
Sat 05:05:07 PM 51.0167 -107.3167 203° Southwest 360 414 26,200 1,050 Climbing Winnipeg Center
Sat 05:06:07 PM 50.9167 -107.3500 192° South 370 426 27,300 1,000 Climbing Winnipeg Center
Sat 05:07:07 PM 50.8333 -107.4000 201° Southwest 370 426 28,200 750 Climbing Winnipeg Center
Sat 05:08:07 PM 50.7167 -107.4667 200° South 370 426 28,800 550 Climbing Winnipeg Center
Sat 05:09:07 PM 50.6333 -107.5167 201° Southwest 370 426 29,300 500 Climbing Winnipeg Center
Sat 05:10:07 PM 50.5333 -107.5667 198° South 380 437 29,800 397 Climbing Winnipeg Center
Sat 05:11:08 PM 50.4333 -107.6333 203° Southwest 380 437 30,100 600 Climbing Winnipeg Center
Sat 05:12:07 PM 50.3333 -107.6833 198° South 390 449 31,000 857 Climbing Winnipeg Center
Sat 05:13:07 PM 50.2333 -107.7167 192° South 380 437 31,800 1,000 Climbing Winnipeg Center
Sat 05:14:07 PM 50.1333 -107.7500 192° South 370 426 33,000 600 Climbing Winnipeg Center
Sat 05:15:07 PM 50.0167 -107.7500 180° South 370 426 33,000  Level Winnipeg Center
Sat 05:16:08 PM 49.9333 -107.7500 180° South 370 426 33,000  Level Winnipeg Center
Sat 05:17:07 PM 49.8167 -107.7833 190° South 380 437 33,000  Level Winnipeg Center
Sat 05:18:07 PM 49.7167 -107.7833 180° South 390 449 33,000  Level Winnipeg Center
Sat 05:19:07 PM 49.6000 -107.8000 185° South 390 449 33,000  Level Winnipeg Center
Sat 05:20:07 PM 49.5000 -107.8000 180° South 400 460 33,000  Level Winnipeg Center
Sat 05:21:07 PM 49.3833 -107.8000 180° South 400 460 33,000  Level Winnipeg Center
Sat 05:22:07 PM 49.2667 -107.8333 191° South 400 460 33,000  Level Winnipeg Center
Sat 05:23:07 PM 49.1667 -107.8333 180° South 390 449 33,000  Level Winnipeg Center
Sat 05:24:07 PM 49.0500 -107.8667 191° South 390 449 33,000  Level Winnipeg Center
Sat 05:25:07 PM 48.9500 -107.8667 180° South 390 449 33,000  Level Winnipeg Center
Sat 05:26:07 PM 48.8333 -107.8833 185° South 390 449 33,000  Level Winnipeg Center
Sat 05:26:58 PM 48.7822 -107.8617 164° South 388 447 33,000 -53 Level Salt Lake Center
Sat 05:28:00 PM 48.6772 -107.8739 184° South 383 441 32,900  Descending Salt Lake Center
Sat 05:29:02 PM 48.5714 -107.8856 184° South 381 438 33,000 48 Climbing Salt Lake Center
Sat 05:30:04 PM 48.4678 -107.8972 184° South 378 435 33,000  Level Salt Lake Center
Sat 05:31:05 PM 48.3422 -107.8956 179° South 377 434 33,000  Level Salt Lake Center
Sat 05:32:07 PM 48.2364 -107.8647 169° South 384 442 33,000  Level Salt Lake Center
Sat 05:33:09 PM 48.1336 -107.8375 170° South 381 438 33,000  Level Salt Lake Center
Sat 05:34:11 PM 48.0300 -107.8094 170° South 380 437 33,000  Level Salt Lake Center
Sat 05:35:13 PM 47.9267 -107.7819 170° South 378 435 33,000  Level Salt Lake Center
Sat 05:36:14 PM 47.8219 -107.7539 170° South 380 437 33,000  Level Salt Lake Center
Sat 05:37:16 PM 47.7192 -107.7269 170° South 378 435 33,000  Level Salt Lake Center
Sat 05:38:18 PM 47.5964 -107.6956 170° South 375 432 33,000  Level Salt Lake Center
Sat 05:39:20 PM 47.4936 -107.6675 170° South 376 433 33,000  Level Salt Lake Center
Sat 05:40:22 PM 47.3944 -107.6406 170° South 370 426 33,000 -49 Level Salt Lake Center
Sat 05:41:23 PM 47.2961 -107.6156 170° South 365 420 32,900  Descending Salt Lake Center
Sat 05:42:25 PM 47.1875 -107.5878 170° South 362 417 33,000 48 Climbing Salt Lake Center
Sat 05:43:27 PM 47.0903 -107.5628 170° South 359 413 33,000  Level Salt Lake Center
Sat 05:44:29 PM 46.9925 -107.5367 170° South 357 411 33,000  Level Salt Lake Center
Sat 05:45:30 PM 46.8919 -107.5117 170° South 362 417 33,000  Level Salt Lake Center
Sat 05:46:32 PM 46.7931 -107.4864 170° South 363 418 33,000  Level Salt Lake Center
Sat 05:47:34 PM 46.6931 -107.4622 171° South 365 420 33,000  Level Salt Lake Center
Sat 05:48:36 PM 46.5747 -107.4308 170° South 362 417 33,000  Level Salt Lake Center
Sat 05:49:37 PM 46.4722 -107.4047 170° South 366 421 33,000  Level Salt Lake Center
Sat 05:50:39 PM 46.3658 -107.3767 170° South 365 420 33,000  Level Salt Lake Center
Sat 05:51:41 PM 46.2661 -107.3519 170° South 366 421 33,000  Level Salt Lake Center
Sat 05:52:43 PM 46.1572 -107.3247 170° South 370 426 33,000  Level Salt Lake Center
Sat 05:53:44 PM 46.0558 -107.2997 170° South 372 428 33,000  Level Salt Lake Center
Sat 05:54:46 PM 45.9547 -107.2739 170° South 374 430 33,000  Level Salt Lake Center
Sat 05:55:48 PM 45.8442 -107.2469 170° South 372 428 33,000  Level Salt Lake Center
Sat 05:56:50 PM 45.7450 -107.2233 171° South 367 422 33,000  Level Salt Lake Center
Sat 05:57:51 PM 45.6361 -107.1956 170° South 370 426 33,000  Level Salt Lake Center
Sat 05:58:53 PM 45.5342 -107.1706 170° South 374 430 33,000  Level Salt Lake Center
Sat 05:59:55 PM 45.4394 -107.1472 170° South 376 433 33,000  Level Salt Lake Center
Sat 06:00:56 PM 45.3197 -107.1208 171° South 374 430 33,000  Level Salt Lake Center
Sat 06:01:58 PM 45.2194 -107.0956 170° South 379 436 33,000  Level Salt Lake Center
Sat 06:02:59 PM 45.1192 -107.0719 171° South 380 437 33,000  Level Salt Lake Center
Sat 06:04:01 PM 45.0008 -107.0453 171° South 384 442 33,000  Level Salt Lake Center
Sat 06:05:03 PM 44.9014 -107.0200 170° South 380 437 33,000  Level Salt Lake Center
Sat 06:06:04 PM 44.7839 -106.9911 170° South 382 440 33,000  Level Salt Lake Center
Sat 06:07:06 PM 44.6831 -106.9689 171° South 383 441 33,000  Level Salt Lake Center
Sat 06:08:07 PM 44.5661 -106.9397 170° South 383 441 33,000  Level Salt Lake Center
Sat 06:09:09 PM 44.4647 -106.9169 171° South 385 443 33,000  Level Salt Lake Center
Sat 06:10:10 PM 44.3647 -106.8911 170° South 383 441 33,000  Level Salt Lake Center
Sat 06:11:12 PM 44.2428 -106.8650 171° South 392 451 33,000  Level Salt Lake Center
Sat 06:12:17 PM 44.1567 -106.8439 170° South 392 451 33,000  Level Denver Center
Sat 06:13:15 PM 44.0183 -106.8142 171° South 396 456 33,000  Level Salt Lake Center
Sat 06:14:16 PM 43.9144 -106.7881 170° South 396 456 33,000  Level Salt Lake Center
Sat 06:15:18 PM 43.8092 -106.7639 171° South 399 459 33,000  Level Salt Lake Center
Sat 06:16:19 PM 43.6847 -106.7361 171° South 404 465 33,000  Level Salt Lake Center
Sat 06:17:20 PM 43.5781 -106.7119 171° South 405 466 33,000  Level Salt Lake Center
Sat 06:18:22 PM 43.4533 -106.6842 171° South 407 468 33,000  Level Salt Lake Center
Sat 06:19:23 PM 43.3467 -106.6600 171° South 407 468 33,000  Level Salt Lake Center
Sat 06:20:25 PM 43.2217 -106.6303 170° South 408 470 33,000 -488 Level Salt Lake Center
Sat 06:21:26 PM 43.1122 -106.6061 171° South 414 476 32,000 -976 Descending Salt Lake Center
Sat 06:22:28 PM 43.0011 -106.5814 171° South 419 482 31,000 -488 Descending Salt Lake Center
Sat 06:23:29 PM 42.8786 -106.5542 171° South 406 467 31,000  Level Salt Lake Center
Sat 06:24:31 PM 42.7786 -106.5314 171° South 390 449 31,000  Level Salt Lake Center
Sat 06:25:32 PM 42.6581 -106.5053 171° South 390 449 31,000  Level Salt Lake Center
Sat 06:26:52 PM 42.5136 -106.4728 171° South 405 466 31,000  Level Denver Center
Sat 06:27:53 PM 42.4242 -106.4528 171° South 408 470 31,000  Level Denver Center
Sat 06:28:55 PM 42.2811 -106.4225 171° South 409 471 31,000  Level Denver Center
Sat 06:29:56 PM 42.1722 -106.3978 170° South 413 475 31,000  Level Denver Center
Sat 06:30:58 PM 42.0483 -106.3483 163° South 427 491 31,000  Level Denver Center
Sat 06:32:00 PM 41.9433 -106.2900 158° South 427 491 31,000  Level Denver Center
Sat 06:33:01 PM 41.8211 -106.2236 158° South 425 489 31,000  Level Denver Center
Sat 06:34:03 PM 41.7164 -106.1658 158° South 426 490 31,000  Level Denver Center
Sat 06:35:04 PM 41.6283 -106.1172 158° South 427 491 31,000  Level Denver Center
Sat 06:36:06 PM 41.4881 -106.0408 158° South 428 493 31,000  Level Denver Center
Sat 06:37:07 PM 41.3825 -105.9839 158° South 428 493 31,000  Level Denver Center
Sat 06:38:09 PM 41.2583 -105.9167 158° South 430 495 31,000  Level Denver Center
Sat 06:39:10 PM 41.1519 -105.8597 158° South 431 496 31,000  Level Denver Center
Sat 06:40:12 PM 41.0283 -105.7925 158° South 432 497 31,000  Level Denver Center
Sat 06:41:14 PM 40.9186 -105.7356 159° South 431 496 31,000 -390 Level Denver Center
Sat 06:42:15 PM 40.8072 -105.6753 158° South 433 498 30,200 -1,556 Descending Denver Center
Sat 06:43:29 PM 40.6964 -105.6167 158° South 432 497 27,500 -2,514 Descending Denver Center
Sat 06:44:43 PM 40.5639 -105.5461 158° South 429 494 24,000 -3,132 Descending Denver Center
Sat 06:45:45 PM 40.4375 -105.4800 158° South 409 471 20,400 -2,000 Descending Denver Center
Sat 06:46:46 PM 40.3450 -105.4156 152° Southeast 331 381 19,900 -1,366 Descending Denver Center
Sat 06:47:48 PM 40.2786 -105.3136 130° Southeast 340 391 17,600 -2,081 Descending Denver Center
Sat 06:48:50 PM 40.2161 -105.2172 130° Southeast 347 399 15,600 -1,415 Descending Denver Center
Sat 06:49:51 PM 40.1656 -105.1364 129° Southeast 341 392 14,700 -1,268 Descending Denver Center
Sat 06:50:53 PM 40.0917 -105.0222 130° Southeast 334 384 13,000 -823 Descending Denver Center
Sat 06:51:55 PM 40.0353 -104.9342 130° Southeast 317 365 13,000 -244 Level Denver Center
Sat 06:52:56 PM 39.9814 -104.8503 130° Southeast 304 350 12,500 -780 Descending Denver Center
Sat 06:53:58 PM 39.9022 -104.8058 157° South 296 341 11,400 -726 Descending Denver Center
Sat 06:55:00 PM 39.8236 -104.8089 182° South 286 329 11,000 -439 Descending Denver Center
Sat 06:56:01 PM 39.7547 -104.8097 181° South 228 262 10,500 -732 Descending Denver Center
Sat 06:57:03 PM 39.6914 -104.8100 180° South 228 262 9,500 -726 Descending Denver Center
Sat 06:58:05 PM 39.6436 -104.7761 151° Southeast 208 239 9,000 -244 Descending Denver Center
Sat 06:59:06 PM 39.6764 -104.7203 53° Northeast 199 229 9,000 -44 Level Denver Center
Sat 07:00:20 PM 39.7183 -104.6889 30° Northeast 180 207 8,900 -81 Descending Denver Center

Login

Don't have an account? Register now (free) for customized features, flight alerts, and more!